Terminal Aerodrome Forecast
Issued by NWS Pueblo, CO

Home | Current Version | Previous Version | Text Only | Print | Product List | Glossary On
Versions: 1 2 3 4 5 6 7 8 9 10 11 12 13 14
000
FTUS45 KPUB 201120
TAFALS
TAF
KALS 201120Z 2012/2112 VRB05KT P6SM VCSH BKN050 OVC080
     FM201700 01008KT P6SM VCSH SCT050 BKN080
     FM202200 01012KT P6SM VCSH SCT030 BKN050
     FM210300 VRB05KT P6SM FEW050 SCT100=

USA.gov is the U.S. government's official web portal to all federal, state and local government web resources and services.